windsock image

Welcome to Bigfield Strip.

anemometer image
     

 Help for dials.  
 
Local Met:

Wind:   
10 Min average:  
51 ° / 0.0 kts (0.0)
51° / 0.0

Temperature:  
20.2°C C
Dew Point:  
18.5°C C
QNH:  
Trend:  
1013.2 mb mb
+0.2mb/hr
BigField Strip. This image updates approximately every minute, it can have a two minute delay.  
 

Humidity:  
90 %
Sunrise:   05:04z
Sunset:   19:05z
Updated:  
  UTC
 
   More met info, trends, radar, history etc. available here   

LUTON Metar   EGGW 251950Z AUTO VRB01KT 9999 NCD 22/18 Q1014
 
  TAF   2016/08/25 18:15 TAF TAF EGGW 251659Z 2518/2618 36005KT 9999 FEW035 PROB30 TEMPO 2518/2524 8000 SHRA PROB30 TEMPO 2600/2606 8000 TSRA BKN006 BECMG 2605/2608 30010KT PROB30 2606/2608 BKN008
 
BENSON Metar   EGUB 251850Z AUTO 00000KT 4700 // BKN070/// 21/20 Q1014
 
  TAF   2016/08/25 15:45 TAF TAF EGUB 251630Z 2515/2518 CNL
 
Big Field view 1 icon   Big Field view 2 icon   Big Field view 3 icon   Chart AL3a in PDF icon   Chart AL3a in Word icon

WARNING:
This information is provided by the Airstrip unofficial weather station, DO NOT depend on the data provided here for any purpose.
This page is updated for latest Metars & TAF's every 5 minutes. Refresh the browser to check for the lastest.
Page designed for a minimum browser size of 1024x768.
© Copyright 2016 BigField Strip. This page auto generated 20:06 UTC - 25/08/2016   Contact Us
Valid HTML 4.01 Transitional     Windows uptime: 3 Days 17 Hours 34 Minutes 14 Seconds    WD started: 02:37 22/08/16    Free memory: 1485MB     Valid CSS!